Time;durP1;ratioP1;P1;durP2;ratioP2;P2;SDS_P1;SDS_P2;PMS_P1;PMS_P2;Temp;Humidity;BMP_temperature;BMP_pressure;BME280_temperature;BME280_humidity;BME280_pressure;Samples;Min_cycle;Max_cycle;Signal;HPM_P1;HPM_P2
2022/10/31 00:01:48;;;;;;;1.00;0.40;;;;;;;0.65;61.54;97829.97;6231015;22;20414;-76
2022/10/31 00:04:12;;;;;;;2.42;0.88;;;;;;;0.68;61.12;97836.78;6231656;22;20021;-75
2022/10/31 00:06:37;;;;;;;1.83;0.55;;;;;;;0.74;60.30;97818.09;6233657;22;20073;-74
2022/10/31 00:09:04;;;;;;;0.65;0.52;;;;;;;0.70;60.61;97837.56;6234315;22;20019;-76
2022/10/31 00:11:28;;;;;;;1.15;0.80;;;;;;;0.74;60.80;97825.94;6231261;22;20347;-73
2022/10/31 00:13:53;;;;;;;0.88;0.60;;;;;;;0.82;60.78;97810.59;6233088;22;20332;-80
2022/10/31 00:16:21;;;;;;;1.40;0.80;;;;;;;0.82;60.31;97810.59;6233800;22;20126;-75
2022/10/31 00:18:50;;;;;;;1.25;0.63;;;;;;;0.84;60.64;97805.25;6233335;22;20012;-76
2022/10/31 00:21:15;;;;;;;0.55;0.55;;;;;;;0.83;60.70;97807.03;6231400;22;20035;-76
2022/10/31 00:23:40;;;;;;;0.32;0.32;;;;;;;0.90;60.50;97808.34;6178931;22;20106;-78
2022/10/31 00:26:06;;;;;;;1.45;0.80;;;;;;;0.86;59.69;97813.88;6229570;22;20054;-72
2022/10/31 00:28:31;;;;;;;0.30;0.30;;;;;;;0.94;60.47;97790.63;6234515;22;20026;-74
2022/10/31 00:31:05;;;;;;;1.15;1.05;;;;;;;0.93;60.29;97799.44;6246422;22;20075;-78
2022/10/31 00:33:30;;;;;;;2.22;1.00;;;;;;;0.85;59.76;97799.91;6215409;22;20031;-73
2022/10/31 00:35:55;;;;;;;0.38;0.38;;;;;;;0.90;59.93;97797.84;6230347;22;20137;-77
2022/10/31 00:38:20;;;;;;;0.77;0.57;;;;;;;0.81;60.39;97803.66;6204145;22;20012;-72
2022/10/31 00:40:44;;;;;;;0.45;0.40;;;;;;;0.85;60.23;97799.91;6231201;22;20069;-73
2022/10/31 00:43:09;;;;;;;1.40;0.95;;;;;;;0.81;59.59;97800.19;6229574;22;20410;-72
2022/10/31 00:45:33;;;;;;;3.22;0.93;;;;;;;0.85;60.44;97789.41;6203410;22;20011;-71
2022/10/31 00:47:58;;;;;;;4.28;0.70;;;;;;;0.78;59.93;97792.53;6231387;22;20022;-75
2022/10/31 00:50:23;;;;;;;1.05;0.55;;;;;;;0.79;60.25;97791.59;6207451;22;20149;-75
2022/10/31 00:52:48;;;;;;;0.98;0.60;;;;;;;0.83;60.18;97782.56;6205986;22;20451;-81
2022/10/31 00:55:12;;;;;;;0.82;0.60;;;;;;;0.84;59.94;97785.09;6229129;22;20011;-70
2022/10/31 00:57:37;;;;;;;1.73;1.00;;;;;;;0.79;59.64;97779.28;6202465;22;20100;-70
2022/10/31 01:00:03;;;;;;;0.65;0.60;;;;;;;0.83;60.22;97785.19;6204794;22;20054;-70
2022/10/31 01:02:28;;;;;;;1.05;0.65;;;;;;;0.88;60.48;97784.00;6230163;22;20016;-71
2022/10/31 01:04:53;;;;;;;0.98;0.40;;;;;;;0.91;60.44;97781.16;6228645;22;20023;-73
2022/10/31 01:07:19;;;;;;;3.67;1.63;;;;;;;0.91;59.93;97783.78;6228088;22;20016;-69
2022/10/31 01:09:43;;;;;;;3.03;0.80;;;;;;;0.83;59.88;97778.16;6228329;22;20019;-72
2022/10/31 01:12:08;;;;;;;0.60;0.60;;;;;;;0.78;59.62;97782.03;6230357;22;20019;-72
2022/10/31 01:14:33;;;;;;;0.52;0.38;;;;;;;0.89;60.30;97775.19;6203530;22;20447;-72
2022/10/31 01:16:57;;;;;;;1.08;0.82;;;;;;;0.87;60.01;97790.16;6203125;22;20027;-72
2022/10/31 01:19:22;;;;;;;3.15;0.70;;;;;;;0.86;60.35;97778.00;6228436;22;20022;-72
2022/10/31 01:21:46;;;;;;;1.27;0.95;;;;;;;0.93;60.19;97781.91;6229795;22;20218;-72
2022/10/31 01:24:11;;;;;;;4.45;1.05;;;;;;;0.86;60.23;97782.38;6229586;22;20019;-69
2022/10/31 01:26:36;;;;;;;2.97;1.30;;;;;;;0.85;60.03;97778.94;6228053;22;20026;-69
2022/10/31 01:29:06;;;;;;;1.13;0.77;;;;;;;0.94;60.47;97777.50;6228357;22;20019;-68
2022/10/31 01:31:35;;;;;;;1.58;0.70;;;;;;;0.96;60.46;97786.13;6229336;22;20019;-68
2022/10/31 01:34:00;;;;;;;1.40;0.65;;;;;;;0.98;60.81;97789.50;6227838;22;20026;-69
2022/10/31 01:36:31;;;;;;;0.28;0.28;;;;;;;1.07;60.74;97781.88;6228491;22;20058;-70
2022/10/31 01:38:58;;;;;;;0.82;0.80;;;;;;;1.10;60.69;97788.75;6229919;22;20355;-71
2022/10/31 01:41:27;;;;;;;6.78;0.98;;;;;;;1.07;60.92;97795.00;6233292;22;20023;-75
2022/10/31 01:43:53;;;;;;;0.90;0.80;;;;;;;1.14;61.53;97794.63;6206728;22;20355;-73
2022/10/31 01:46:29;;;;;;;1.33;0.55;;;;;;;1.15;61.60;97797.16;6243136;22;20019;-71
2022/10/31 01:48:55;;;;;;;1.85;0.77;;;;;;;1.11;62.20;97797.44;6206885;22;20039;-72
2022/10/31 01:51:25;;;;;;;1.70;0.95;;;;;;;0.99;62.85;97789.41;6231889;22;20447;-71
2022/10/31 01:53:54;;;;;;;2.05;0.80;;;;;;;0.94;63.40;97791.47;6229496;22;20470;-71
2022/10/31 01:56:18;;;;;;;1.42;1.02;;;;;;;0.89;64.30;97797.94;6232784;22;20043;-71
2022/10/31 01:58:45;;;;;;;0.38;0.38;;;;;;;0.88;64.82;97796.25;6203633;22;20022;-70
2022/10/31 02:01:10;;;;;;;3.78;0.82;;;;;;;0.70;65.88;97808.72;6229755;22;20324;-70
2022/10/31 02:03:35;;;;;;;1.33;1.20;;;;;;;0.66;66.34;97809.84;6227111;22;20015;-73
2022/10/31 02:06:00;;;;;;;1.90;0.70;;;;;;;0.56;67.33;97820.06;6201183;22;20083;-65
2022/10/31 02:08:30;;;;;;;0.80;0.80;;;;;;;0.54;68.25;97821.06;6231922;22;20351;-71
2022/10/31 02:10:57;;;;;;;2.40;1.02;;;;;;;0.56;68.22;97817.44;6203179;22;20069;-70
2022/10/31 02:13:23;;;;;;;0.75;0.55;;;;;;;0.46;69.41;97807.56;6228527;22;20016;-71
2022/10/31 02:15:52;;;;;;;1.02;0.85;;;;;;;0.47;69.72;97817.13;6227697;22;20019;-71
2022/10/31 02:18:18;;;;;;;3.20;0.65;;;;;;;0.41;70.63;97809.63;6227533;22;20102;-74
2022/10/31 02:20:58;;;;;;;0.70;0.70;;;;;;;0.44;71.24;97818.16;5156006;27;20597;-72
2022/10/31 02:23:51;;;;;;;1.88;1.17;;;;;;;0.32;71.42;97817.13;5115854;27;20107;-72
2022/10/31 02:26:46;;;;;;;0.55;0.55;;;;;;;0.35;72.27;97814.28;5098953;27;20506;-74
2022/10/31 02:29:38;;;;;;;1.15;0.85;;;;;;;0.29;72.39;97811.22;5116720;27;20473;-70
2022/10/31 02:32:21;;;;;;;3.42;0.80;;;;;;;0.15;73.35;97809.41;5095556;27;20043;-66
2022/10/31 02:35:11;;;;;;;1.33;0.80;;;;;;;0.13;73.50;97803.41;5095120;27;20102;-68
2022/10/31 02:37:49;;;;;;;2.75;0.80;;;;;;;-0.04;74.81;97808.78;5094474;27;20039;-68
2022/10/31 02:40:26;;;;;;;0.55;0.55;;;;;;;-0.01;75.62;97811.25;5076691;27;20505;-69
2022/10/31 02:43:20;;;;;;;1.77;0.80;;;;;;;-0.03;75.92;97813.94;5012434;28;20048;-67
2022/10/31 02:45:54;;;;;;;1.70;0.85;;;;;;;-0.08;76.32;97813.34;5029180;28;20048;-68
2022/10/31 02:48:23;;;;;;;1.43;1.33;;;;;;;-0.07;76.26;97809.81;5029370;28;20044;-68
2022/10/31 02:51:11;;;;;;;0.70;0.70;;;;;;;-0.13;76.86;97814.56;5012811;28;20040;-74
2022/10/31 02:53:37;;;;;;;2.97;1.17;;;;;;;-0.11;76.93;97808.28;5012797;28;20055;-69
2022/10/31 02:56:08;;;;;;;2.35;1.10;;;;;;;-0.07;76.58;97808.97;5028977;28;20048;-69
2022/10/31 02:58:48;;;;;;;3.78;1.42;;;;;;;-0.25;77.57;97808.25;4995749;28;20055;-71
2022/10/31 03:01:33;;;;;;;1.42;1.13;;;;;;;-0.24;77.86;97811.72;5012791;28;20099;-69
2022/10/31 03:04:24;;;;;;;2.20;1.40;;;;;;;-0.18;77.53;97809.59;5029080;28;20047;-67
2022/10/31 03:07:32;;;;;;;1.77;0.98;;;;;;;-0.15;77.78;97806.78;4996223;28;20045;-68
2022/10/31 03:10:03;;;;;;;2.75;1.35;;;;;;;-0.13;77.78;97810.19;5030822;28;20045;-66
2022/10/31 03:12:43;;;;;;;2.78;1.15;;;;;;;-0.13;77.77;97804.09;5009065;28;20045;-66
2022/10/31 03:15:45;;;;;;;3.38;1.30;;;;;;;-0.06;77.76;97811.50;5002217;28;20107;-66
2022/10/31 03:18:27;;;;;;;1.75;0.88;;;;;;;-0.05;77.45;97818.41;4931526;28;20597;-68
2022/10/31 03:21:09;;;;;;;2.15;1.30;;;;;;;-0.21;77.34;97806.28;5003741;28;20048;-67
2022/10/31 03:23:36;;;;;;;1.90;1.02;;;;;;;-0.24;77.26;97812.56;4992883;28;20051;-69
2022/10/31 03:26:05;;;;;;;1.88;1.27;;;;;;;-0.20;77.55;97813.22;4978213;28;20147;-67
2022/10/31 03:28:39;;;;;;;2.13;0.65;;;;;;;-0.13;76.75;97815.41;5003745;28;20045;-71
2022/10/31 03:31:06;;;;;;;3.17;0.95;;;;;;;-0.12;76.90;97826.72;4997524;28;20094;-67
2022/10/31 03:33:36;;;;;;;2.95;0.95;;;;;;;-0.14;76.83;97816.34;4990766;28;20540;-67
2022/10/31 03:36:04;;;;;;;1.38;1.00;;;;;;;-0.11;76.44;97817.91;4980501;28;20128;-69
2022/10/31 03:38:34;;;;;;;2.15;0.75;;;;;;;-0.15;76.94;97814.66;4982065;28;20040;-69
2022/10/31 03:41:02;;;;;;;3.30;1.13;;;;;;;-0.20;76.59;97813.22;4964601;28;20163;-68
2022/10/31 03:43:32;;;;;;;3.03;1.00;;;;;;;-0.21;76.65;97817.59;4982439;28;20123;-67
2022/10/31 03:45:57;;;;;;;8.15;2.45;;;;;;;-0.17;76.47;97811.28;4979385;28;20045;-66
2022/10/31 03:48:22;;;;;;;2.58;0.90;;;;;;;-0.17;76.29;97813.88;4963055;28;20053;-67
2022/10/31 03:50:53;;;;;;;1.95;1.02;;;;;;;-0.08;75.62;97817.75;4946404;28;20051;-66
2022/10/31 03:53:35;;;;;;;1.52;0.82;;;;;;;-0.03;75.69;97808.72;4989714;27;20050;-68
2022/10/31 03:56:11;;;;;;;0.60;0.60;;;;;;;-0.05;75.52;97814.97;5063548;27;20489;-68
2022/10/31 03:58:44;;;;;;;8.85;1.08;;;;;;;-0.06;75.38;97818.50;5098640;27;20127;-69
2022/10/31 04:01:15;;;;;;;1.70;0.75;;;;;;;-0.03;75.23;97819.19;5079936;27;20042;-68
2022/10/31 04:03:42;;;;;;;1.63;1.30;;;;;;;-0.02;75.12;97820.03;5063125;27;20094;-68
2022/10/31 04:06:11;;;;;;;1.75;1.00;;;;;;;0.02;75.04;97826.75;5063345;27;20050;-68
2022/10/31 04:08:44;;;;;;;2.30;1.52;;;;;;;-0.02;74.53;97822.66;5080473;27;20054;-69
2022/10/31 04:11:15;;;;;;;5.47;1.02;;;;;;;-0.05;74.22;97813.19;5064170;27;20085;-68
2022/10/31 04:13:44;;;;;;;1.30;1.10;;;;;;;-0.01;74.03;97821.72;5067621;27;20057;-68
2022/10/31 04:16:15;;;;;;;1.33;0.82;;;;;;;0.03;73.78;97831.06;5068048;27;20106;-67
2022/10/31 04:18:40;;;;;;;0.68;0.68;;;;;;;0.02;73.48;97834.63;5084000;27;20054;-68
2022/10/31 04:21:06;;;;;;;1.42;1.08;;;;;;;0.03;73.90;97838.91;5080277;27;20043;-68
2022/10/31 04:23:33;;;;;;;3.28;1.27;;;;;;;0.00;74.07;97836.50;5078992;27;20544;-67
2022/10/31 04:26:00;;;;;;;2.78;1.00;;;;;;;0.07;73.98;97843.06;5063375;27;20035;-75
2022/10/31 04:28:24;;;;;;;3.60;1.33;;;;;;;0.06;74.22;97830.91;5097101;27;20035;-67
2022/10/31 04:30:49;;;;;;;7.05;3.40;;;;;;;0.04;74.23;97843.22;5079252;27;20493;-69
2022/10/31 04:33:15;;;;;;;3.85;2.53;;;;;;;-0.02;74.76;97854.09;5064789;27;20085;-67
2022/10/31 04:35:41;;;;;;;1.52;1.05;;;;;;;-0.05;74.58;97844.63;5062276;27;20067;-67
2022/10/31 04:38:05;;;;;;;2.08;0.85;;;;;;;-0.02;74.83;97854.94;5097318;27;20039;-69
2022/10/31 04:40:31;;;;;;;2.30;1.10;;;;;;;0.02;74.80;97860.81;5079082;27;20122;-69
2022/10/31 04:43:19;;;;;;;1.27;1.13;;;;;;;0.08;74.90;97857.00;5093398;27;20418;-73
2022/10/31 04:45:44;;;;;;;2.80;1.30;;;;;;;0.10;74.22;97863.84;5062030;27;20035;-69
2022/10/31 04:48:09;;;;;;;2.30;1.02;;;;;;;0.00;74.53;97852.22;5078358;27;20435;-70
2022/10/31 04:50:35;;;;;;;3.95;1.13;;;;;;;0.08;74.77;97859.63;5077879;27;20039;-71
2022/10/31 04:53:00;;;;;;;4.32;0.88;;;;;;;0.03;75.14;97872.97;5078909;27;20103;-69
2022/10/31 04:55:28;;;;;;;3.30;1.23;;;;;;;0.12;74.88;97863.75;5061147;27;20043;-72
2022/10/31 04:58:11;;;;;;;4.38;0.93;;;;;;;0.09;75.23;97880.50;5078754;27;20049;-70
2022/10/31 05:00:36;;;;;;;2.60;1.00;;;;;;;0.11;74.93;97881.25;5077743;27;20121;-69
2022/10/31 05:03:02;;;;;;;1.55;0.95;;;;;;;0.12;75.46;97876.84;5096660;27;20079;-68
2022/10/31 05:05:29;;;;;;;1.88;1.42;;;;;;;0.17;75.37;97880.06;5096413;27;20123;-69
2022/10/31 05:07:55;;;;;;;4.22;2.28;;;;;;;0.16;75.21;97894.09;5078107;27;20042;-69
2022/10/31 05:10:28;;;;;;;1.15;0.95;;;;;;;0.19;75.27;97880.81;5078967;27;20031;-69
2022/10/31 05:13:01;;;;;;;3.47;1.58;;;;;;;0.16;74.84;97900.16;5062193;27;20066;-69
2022/10/31 05:15:43;;;;;;;3.58;0.90;;;;;;;0.13;74.87;97900.34;5100108;27;20034;-69
2022/10/31 05:18:27;;;;;;;1.50;1.40;;;;;;;0.03;74.75;97904.41;5116990;27;20394;-69
2022/10/31 05:21:10;;;;;;;1.63;0.95;;;;;;;0.11;74.94;97906.63;5098286;27;20046;-69
2022/10/31 05:23:48;;;;;;;1.45;0.80;;;;;;;0.13;75.06;97918.69;5083177;27;20129;-69
2022/10/31 05:26:14;;;;;;;0.88;0.80;;;;;;;0.16;74.36;97920.28;5098167;27;20049;-69
2022/10/31 05:28:38;;;;;;;1.83;0.90;;;;;;;0.17;74.79;97920.19;5097735;27;20047;-68
2022/10/31 05:31:03;;;;;;;2.33;1.15;;;;;;;0.12;74.72;97916.13;5116011;27;20084;-69
2022/10/31 05:33:29;;;;;;;1.92;1.30;;;;;;;0.10;74.97;97918.03;5097789;27;20046;-69
2022/10/31 05:36:03;;;;;;;1.05;0.75;;;;;;;0.18;74.65;97924.50;5097577;27;20083;-68
2022/10/31 05:38:27;;;;;;;3.13;1.75;;;;;;;0.21;75.02;97940.06;5118537;27;20034;-69
2022/10/31 05:41:02;;;;;;;1.70;0.95;;;;;;;0.27;74.95;97950.19;5083445;27;20049;-72
2022/10/31 05:43:29;;;;;;;3.33;2.20;;;;;;;0.31;74.85;97946.47;5081460;27;20548;-70
2022/10/31 05:45:55;;;;;;;3.05;1.75;;;;;;;0.26;74.95;97942.41;5097284;27;20495;-70
2022/10/31 05:48:38;;;;;;;2.30;1.23;;;;;;;0.23;75.14;97939.97;5116387;27;20497;-69
2022/10/31 05:51:26;;;;;;;2.10;1.33;;;;;;;0.33;74.70;97960.34;5052866;28;20056;-69
2022/10/31 05:53:51;;;;;;;0.70;0.60;;;;;;;0.41;75.37;97973.00;5052520;28;20202;-69
2022/10/31 05:56:17;;;;;;;1.60;1.50;;;;;;;0.46;74.77;97968.31;5035321;28;20530;-69
2022/10/31 05:58:42;;;;;;;7.30;4.80;;;;;;;0.40;75.72;97975.69;5052401;28;20521;-70
2022/10/31 06:01:07;;;;;;;8.90;4.20;;;;;;;0.39;75.11;97967.00;5035848;28;20044;-69
2022/10/31 06:03:32;;;;;;;4.97;2.40;;;;;;;0.41;75.33;97987.88;5052658;28;20163;-68
2022/10/31 06:05:59;;;;;;;3.80;2.28;;;;;;;0.50;75.33;98003.06;5035776;28;20055;-69
2022/10/31 06:08:44;;;;;;;5.78;3.35;;;;;;;0.58;75.47;97995.59;5052068;28;20047;-68
2022/10/31 06:11:15;;;;;;;5.68;3.45;;;;;;;0.57;75.24;97991.28;5052336;28;20054;-69
2022/10/31 06:14:04;;;;;;;4.20;3.08;;;;;;;0.64;75.64;98005.75;5033109;28;20052;-70
2022/10/31 06:16:54;;;;;;;3.90;3.10;;;;;;;0.69;74.85;98015.03;4996574;28;20048;-69
2022/10/31 06:19:36;;;;;;;8.15;2.85;;;;;;;0.62;74.95;98018.09;5015256;28;20044;-69
2022/10/31 06:22:02;;;;;;;5.38;2.10;;;;;;;0.62;75.66;98012.88;4981784;28;20056;-69
2022/10/31 06:24:27;;;;;;;8.85;2.88;;;;;;;0.64;75.49;98027.59;4998926;28;20106;-69
2022/10/31 06:26:52;;;;;;;2.83;1.80;;;;;;;0.64;75.61;98038.06;5031697;28;20157;-69
2022/10/31 06:29:16;;;;;;;6.47;2.28;;;;;;;0.77;76.09;98035.59;5015311;28;20523;-70
2022/10/31 06:32:11;;;;;;;5.15;2.00;;;;;;;0.85;75.43;98046.47;4995538;28;20388;-70
2022/10/31 06:34:40;;;;;;;4.30;2.50;;;;;;;0.87;75.76;98060.38;4995560;28;20119;-68
2022/10/31 06:37:10;;;;;;;6.57;2.75;;;;;;;0.90;75.40;98069.84;5012492;28;20449;-70
2022/10/31 06:39:36;;;;;;;3.38;2.10;;;;;;;0.90;75.71;98075.09;5011983;28;20045;-69
2022/10/31 06:42:01;;;;;;;2.45;1.98;;;;;;;0.95;75.96;98078.28;4996214;28;20122;-68
2022/10/31 06:44:27;;;;;;;2.78;1.90;;;;;;;1.00;76.09;98092.84;5013620;28;20051;-68
2022/10/31 06:46:52;;;;;;;2.55;1.70;;;;;;;1.07;75.73;98101.19;5012357;28;20041;-69
2022/10/31 06:49:40;;;;;;;7.30;1.83;;;;;;;1.13;75.51;98095.56;5013633;28;20139;-68
2022/10/31 06:52:12;;;;;;;7.47;2.13;;;;;;;1.13;75.67;98102.63;5018568;28;20098;-68
2022/10/31 06:54:37;;;;;;;9.20;2.17;;;;;;;1.20;75.71;98101.31;5035427;28;20044;-69
2022/10/31 06:57:02;;;;;;;5.25;2.53;;;;;;;1.27;76.26;98106.13;5017216;28;20625;-68
2022/10/31 06:59:27;;;;;;;2.42;1.48;;;;;;;1.37;76.23;98114.28;5033660;28;20457;-71
2022/10/31 07:01:58;;;;;;;3.97;1.80;;;;;;;1.44;75.53;98123.53;5033805;28;20133;-69
2022/10/31 07:04:24;;;;;;;5.25;1.90;;;;;;;1.48;75.76;98121.53;5032756;28;20126;-67
2022/10/31 07:06:51;;;;;;;7.07;2.50;;;;;;;1.44;75.85;98120.91;5034427;28;20416;-69
2022/10/31 07:09:17;;;;;;;3.63;1.85;;;;;;;1.50;75.43;98141.53;5047664;28;20059;-69
2022/10/31 07:11:41;;;;;;;4.20;2.13;;;;;;;1.57;75.49;98131.53;5059606;28;20048;-70
2022/10/31 07:14:06;;;;;;;8.25;2.70;;;;;;;1.57;75.40;98142.88;5076868;28;20071;-68
2022/10/31 07:16:31;;;;;;;3.97;2.10;;;;;;;1.56;75.32;98156.94;5077950;28;20066;-69
2022/10/31 07:18:55;;;;;;;3.88;2.28;;;;;;;1.64;75.12;98159.94;5076736;28;20505;-68
2022/10/31 07:21:20;;;;;;;2.25;1.88;;;;;;;1.67;75.55;98162.41;5059986;28;20494;-68
2022/10/31 07:23:48;;;;;;;4.70;2.20;;;;;;;1.78;75.76;98172.28;5078440;28;20431;-68
2022/10/31 07:26:31;;;;;;;2.75;2.10;;;;;;;1.95;75.37;98179.13;5078089;28;20055;-69
2022/10/31 07:28:56;;;;;;;2.20;2.00;;;;;;;2.05;75.22;98188.16;5076677;28;20047;-69
2022/10/31 07:31:24;;;;;;;2.78;1.60;;;;;;;2.15;75.21;98189.28;5076705;28;20055;-69
2022/10/31 07:33:51;;;;;;;3.65;1.98;;;;;;;2.23;74.79;98197.56;5076376;28;20048;-69
2022/10/31 07:36:25;;;;;;;2.58;1.50;;;;;;;2.37;74.26;98199.38;5077682;28;20383;-69
2022/10/31 07:38:52;;;;;;;2.25;1.63;;;;;;;2.39;73.75;98216.72;5059886;28;20401;-69
2022/10/31 07:41:17;;;;;;;1.75;1.23;;;;;;;2.37;73.63;98213.34;5042418;28;20413;-69
2022/10/31 07:43:43;;;;;;;2.67;1.88;;;;;;;2.37;73.37;98228.31;5081638;27;20593;-70
2022/10/31 07:46:27;;;;;;;3.15;1.73;;;;;;;2.34;73.08;98234.59;5096570;27;20051;-69
2022/10/31 07:49:10;;;;;;;2.10;1.70;;;;;;;2.36;73.44;98240.59;5097266;27;20043;-70
2022/10/31 07:51:54;;;;;;;1.50;1.17;;;;;;;2.32;73.33;98254.88;5097826;27;20058;-69
2022/10/31 07:54:37;;;;;;;2.08;1.45;;;;;;;2.31;73.38;98266.31;5097940;27;20561;-69
2022/10/31 07:57:02;;;;;;;2.85;1.40;;;;;;;2.33;73.56;98268.84;5097475;27;20469;-69
2022/10/31 07:59:27;;;;;;;2.97;1.10;;;;;;;2.34;73.50;98267.91;5096480;27;20070;-68
2022/10/31 08:01:53;;;;;;;2.83;1.52;;;;;;;2.36;73.80;98273.94;5096389;27;20102;-68
2022/10/31 08:04:29;;;;;;;1.77;1.48;;;;;;;2.42;73.83;98277.03;5096162;27;20034;-69
2022/10/31 08:07:12;;;;;;;3.13;1.35;;;;;;;2.55;73.34;98267.47;5098003;27;20547;-69
2022/10/31 08:09:41;;;;;;;2.72;1.48;;;;;;;2.61;73.26;98282.03;5079444;27;20066;-68
2022/10/31 08:12:16;;;;;;;4.25;1.23;;;;;;;2.67;73.39;98289.56;5102593;27;20050;-68
2022/10/31 08:14:41;;;;;;;2.83;1.90;;;;;;;2.71;72.91;98290.22;5081133;27;20039;-68
2022/10/31 08:17:06;;;;;;;2.65;1.83;;;;;;;2.76;72.85;98294.25;5078889;27;20038;-68
2022/10/31 08:19:39;;;;;;;3.30;1.90;;;;;;;2.84;72.61;98297.25;5096109;27;20617;-69
2022/10/31 08:22:04;;;;;;;9.02;2.78;;;;;;;2.97;72.91;98301.75;5096171;27;20185;-67
2022/10/31 08:24:29;;;;;;;2.85;2.03;;;;;;;3.04;72.92;98309.19;5078494;27;20043;-69
2022/10/31 08:26:55;;;;;;;2.42;1.75;;;;;;;3.11;71.79;98321.03;5095848;27;20074;-68
2022/10/31 08:29:20;;;;;;;4.18;1.50;;;;;;;3.17;71.59;98318.00;5097013;27;20078;-68
2022/10/31 08:31:45;;;;;;;2.40;1.45;;;;;;;3.19;71.42;98324.00;5078759;27;20516;-69
2022/10/31 08:34:28;;;;;;;2.63;1.60;;;;;;;3.23;71.15;98324.69;5081039;27;20138;-68
2022/10/31 08:37:31;;;;;;;5.05;1.80;;;;;;;3.19;71.04;98324.00;5053892;28;20059;-68
2022/10/31 08:39:56;;;;;;;2.47;1.48;;;;;;;3.19;70.85;98326.66;5037001;28;20054;-67
2022/10/31 08:42:21;;;;;;;3.85;1.85;;;;;;;3.22;70.67;98331.72;5037143;28;20530;-68
2022/10/31 08:44:45;;;;;;;1.83;1.35;;;;;;;3.32;70.31;98336.41;5037101;28;20130;-68
2022/10/31 08:47:11;;;;;;;7.40;1.33;;;;;;;3.41;68.98;98344.59;5020128;28;20071;-69
2022/10/31 08:49:36;;;;;;;3.28;2.08;;;;;;;3.59;68.72;98353.13;5036930;28;20075;-70
2022/10/31 08:52:01;;;;;;;6.15;2.30;;;;;;;3.63;68.67;98360.72;5036958;28;20097;-70
2022/10/31 08:54:31;;;;;;;2.78;1.42;;;;;;;3.73;68.07;98357.50;5020642;28;20162;-69
2022/10/31 08:56:56;;;;;;;2.42;1.60;;;;;;;3.97;67.66;98363.81;5052496;28;20131;-69
2022/10/31 08:59:53;;;;;;;2.25;1.48;;;;;;;4.17;66.50;98373.09;4993737;28;20060;-70
2022/10/31 09:02:30;;;;;;;2.00;1.80;;;;;;;4.30;66.29;98363.38;4993584;28;20504;-70
2022/10/31 09:04:57;;;;;;;5.28;1.90;;;;;;;4.33;65.56;98371.09;4993500;28;20128;-71
2022/10/31 09:07:22;;;;;;;2.95;2.05;;;;;;;4.37;65.35;98373.44;4998296;28;20178;-69
2022/10/31 09:09:47;;;;;;;2.85;2.08;;;;;;;4.43;64.79;98377.47;5016698;28;20051;-70
2022/10/31 09:12:12;;;;;;;4.00;2.28;;;;;;;4.49;64.68;98374.44;5016706;28;20056;-69
2022/10/31 09:15:06;;;;;;;2.78;2.30;;;;;;;4.50;64.79;98373.50;4974004;28;20454;-70
2022/10/31 09:17:54;;;;;;;3.70;1.90;;;;;;;4.69;63.04;98384.47;4960657;28;20468;-71
2022/10/31 09:20:28;;;;;;;1.90;1.80;;;;;;;4.74;62.58;98379.72;4974041;28;20084;-70
2022/10/31 09:23:20;;;;;;;2.88;1.80;;;;;;;4.75;62.96;98376.13;4958440;28;20060;-71
2022/10/31 09:25:45;;;;;;;2.33;1.92;;;;;;;4.57;63.92;98387.09;4959837;28;20085;-69
2022/10/31 09:28:32;;;;;;;1.85;1.67;;;;;;;4.78;64.61;98390.94;4972387;28;20437;-68
2022/10/31 09:31:01;;;;;;;7.68;2.33;;;;;;;6.15;63.30;98389.16;4957447;28;20115;-68
2022/10/31 09:34:01;;;;;;;3.15;2.28;;;;;;;7.72;57.75;98409.72;4915843;29;20051;-69
2022/10/31 09:36:35;;;;;;;3.67;1.88;;;;;;;8.22;54.57;98397.69;4951033;28;20054;-68
2022/10/31 09:39:01;;;;;;;1.85;1.73;;;;;;;8.11;53.81;98411.00;4920646;28;20514;-69
2022/10/31 09:42:06;;;;;;;1.85;1.42;;;;;;;7.79;56.28;98421.50;4918419;28;20090;-68
2022/10/31 09:44:37;;;;;;;3.50;1.70;;;;;;;7.13;54.41;98425.00;4919212;28;20047;-68
2022/10/31 09:47:11;;;;;;;2.97;1.98;;;;;;;6.67;54.55;98409.94;4918910;28;20073;-68
2022/10/31 09:50:04;;;;;;;8.75;2.20;;;;;;;6.57;54.66;98415.09;4918785;28;20342;-68
2022/10/31 09:52:32;;;;;;;2.28;1.45;;;;;;;6.45;55.43;98436.31;5005016;28;20061;-68
2022/10/31 09:55:05;;;;;;;2.30;1.40;;;;;;;6.24;56.64;98453.78;4996979;28;20051;-67
2022/10/31 09:57:34;;;;;;;4.70;2.08;;;;;;;5.89;57.33;98467.75;4995977;28;20052;-67
2022/10/31 09:59:59;;;;;;;1.60;1.38;;;;;;;5.49;58.04;98459.09;5012285;28;20041;-69
2022/10/31 10:02:30;;;;;;;10.10;1.55;;;;;;;5.37;59.45;98475.81;4980753;28;20214;-69
2022/10/31 10:05:06;;;;;;;4.10;1.67;;;;;;;5.43;60.33;98467.44;4979771;28;20072;-68
2022/10/31 10:08:15;;;;;;;2.67;1.38;;;;;;;5.87;60.58;98472.25;5022937;27;20064;-67
2022/10/31 10:11:41;;;;;;;2.05;1.23;;;;;;;6.13;58.07;98479.22;5031881;28;20049;-68
2022/10/31 10:14:25;;;;;;;2.70;1.38;;;;;;;6.38;57.52;98493.34;5015614;28;20092;-68
2022/10/31 10:16:58;;;;;;;2.92;1.58;;;;;;;6.43;57.41;98502.63;5032090;28;20503;-67
2022/10/31 10:19:54;;;;;;;2.55;1.38;;;;;;;6.34;57.48;98507.72;5032356;28;20095;-68
2022/10/31 10:22:18;;;;;;;;;;;;;;;6.18;57.80;98515.94;5032650;28;20135;-69
2022/10/31 10:24:55;;;;;;;2.05;1.38;;;;;;;5.79;58.50;98519.56;5032048;28;20030;-68
2022/10/31 10:27:23;;;;;;;4.78;3.13;;;;;;;5.48;59.62;98518.22;5015484;28;20147;-68
2022/10/31 10:29:53;;;;;;;3.40;1.77;;;;;;;5.21;61.10;98528.84;4999400;28;20517;-68
2022/10/31 10:32:25;;;;;;;4.18;0.70;;;;;;;5.05;61.42;98525.56;5032837;28;20048;-69
2022/10/31 10:34:53;;;;;;;0.70;0.68;;;;;;;4.97;61.90;98527.84;5016389;28;20537;-70
2022/10/31 10:37:31;;;;;;;1.50;1.15;;;;;;;4.96;61.94;98531.47;5032113;28;20136;-68
2022/10/31 10:40:07;;;;;;;1.52;1.17;;;;;;;4.91;62.12;98537.03;5033795;28;20084;-68
2022/10/31 10:48:11;;;;;;;0.75;0.40;;;;;;;4.93;61.54;98539.56;5082952;28;20000;-70
2022/10/31 10:50:41;;;;;;;4.25;1.73;;;;;;;4.64;61.82;98558.16;5080902;28;20405;-70
2022/10/31 10:53:21;;;;;;;2.92;1.42;;;;;;;4.65;62.30;98559.84;5095427;27;20044;-67
2022/10/31 10:55:55;;;;;;;2.45;1.40;;;;;;;4.99;62.49;98568.22;5078504;28;20047;-66
2022/10/31 10:58:20;;;;;;;2.13;1.40;;;;;;;5.24;60.74;98551.59;5094786;27;20039;-67
2022/10/31 11:00:47;;;;;;;2.83;1.48;;;;;;;5.32;60.02;98538.69;5078068;28;20060;-68
2022/10/31 11:03:13;;;;;;;1.10;0.98;;;;;;;5.34;60.37;98542.94;5077275;28;20035;-67
2022/10/31 11:05:49;;;;;;;1.33;1.08;;;;;;;5.35;59.88;98541.97;5094621;27;20568;-68
2022/10/31 11:08:24;;;;;;;2.05;1.17;;;;;;;5.25;59.26;98548.00;5076978;28;20049;-66
2022/10/31 11:11:10;;;;;;;1.58;1.02;;;;;;;5.18;59.05;98539.66;5077276;28;20089;-67
2022/10/31 11:13:36;;;;;;;4.90;1.77;;;;;;;4.97;58.25;98530.47;5078166;28;20035;-66
2022/10/31 11:16:00;;;;;;;1.45;1.05;;;;;;;4.88;58.77;98525.81;5059697;28;20363;-64
2022/10/31 11:18:27;;;;;;;2.30;0.88;;;;;;;4.75;59.20;98544.25;5076791;27;20062;-65
2022/10/31 11:20:55;;;;;;;1.10;1.02;;;;;;;4.70;59.97;98547.22;5098353;27;20043;-64
2022/10/31 11:23:23;;;;;;;4.95;2.00;;;;;;;4.65;59.47;98559.84;5079728;27;20039;-65
2022/10/31 11:25:50;;;;;;;2.55;1.00;;;;;;;4.49;59.26;98553.88;5098160;27;20098;-65
2022/10/31 11:28:14;;;;;;;2.33;0.93;;;;;;;4.50;59.93;98557.38;5079725;27;20497;-65
2022/10/31 11:30:49;;;;;;;2.03;0.90;;;;;;;4.52;59.91;98574.78;5079791;27;20420;-64
2022/10/31 11:33:27;;;;;;;2.05;1.52;;;;;;;4.55;60.12;98556.13;5097728;27;20051;-66
2022/10/31 11:35:54;;;;;;;2.78;1.65;;;;;;;4.41;60.19;98571.13;5098139;27;20524;-67
2022/10/31 11:38:23;;;;;;;1.67;1.05;;;;;;;4.38;60.73;98575.69;5109473;27;20038;-66
2022/10/31 11:40:55;;;;;;;1.95;1.35;;;;;;;4.20;60.24;98578.59;5118441;27;20125;-66
2022/10/31 11:43:21;;;;;;;0.93;0.93;;;;;;;4.28;60.41;98589.53;5118293;27;20050;-65
2022/10/31 11:45:46;;;;;;;2.85;1.10;;;;;;;4.08;60.92;98579.38;5120364;27;20043;-67
2022/10/31 11:48:17;;;;;;;3.67;1.58;;;;;;;3.97;61.33;98582.66;5123137;27;20390;-68
2022/10/31 11:50:49;;;;;;;1.63;1.42;;;;;;;3.82;62.05;98587.13;5119542;27;20065;-67
2022/10/31 11:53:18;;;;;;;1.80;0.95;;;;;;;3.91;61.75;98591.81;5100927;27;20878;-69
2022/10/31 11:55:43;;;;;;;1.67;1.20;;;;;;;3.86;62.46;98591.25;5100719;27;20430;-70
2022/10/31 11:58:26;;;;;;;3.33;1.15;;;;;;;3.86;62.36;98596.50;5120121;27;20042;-70
2022/10/31 12:00:54;;;;;;;2.05;0.95;;;;;;;3.81;63.07;98588.06;5118896;27;20043;-67
2022/10/31 12:03:21;;;;;;;4.35;1.00;;;;;;;3.83;63.10;98595.88;5118491;27;20043;-66
2022/10/31 12:05:53;;;;;;;1.27;0.90;;;;;;;3.81;63.06;98600.38;5099724;27;20404;-70
2022/10/31 12:08:18;;;;;;;1.08;1.00;;;;;;;3.74;62.84;98591.13;5123571;27;20061;-72